createdAt,value
2022-08-27T00:03:26.495Z,93195.60
2022-08-27T00:08:33.559Z,93195.63
2022-08-27T00:13:43.055Z,93190.30
2022-08-27T00:18:55.545Z,93190.49
2022-08-27T00:24:02.541Z,93190.95
2022-08-27T00:29:13.986Z,93183.63
2022-08-27T00:34:24.415Z,93187.52
2022-08-27T00:39:31.455Z,93185.30
2022-08-27T00:44:39.295Z,93185.55
2022-08-27T00:49:55.155Z,93192.72
2022-08-27T00:55:09.865Z,93195.56
2022-08-27T01:00:20.389Z,93202.19
2022-08-27T01:05:28.475Z,93196.73
2022-08-27T01:10:38.175Z,93192.44
2022-08-27T01:15:45.405Z,93194.43
2022-08-27T01:21:09.375Z,93194.87
2022-08-27T01:26:21.338Z,93198.35
2022-08-27T01:31:29.764Z,93200.98
2022-08-27T01:36:37.094Z,93207.09
2022-08-27T01:41:44.094Z,93204.39
2022-08-27T01:46:51.192Z,93209.69
2022-08-27T01:51:58.184Z,93208.91
2022-08-27T01:57:05.597Z,93203.52
2022-08-27T02:02:14.836Z,93205.55
2022-08-27T02:07:21.814Z,93208.25
2022-08-27T02:12:28.865Z,93207.68
2022-08-27T02:17:36.345Z,93208.70
2022-08-27T02:22:44.267Z,93206.91
2022-08-27T02:27:53.076Z,93198.83
2022-08-27T02:33:01.506Z,93191.20
2022-08-27T02:38:09.667Z,93195.02
2022-08-27T02:43:25.273Z,93203.17
2022-08-27T02:48:25.955Z,93202.39
2022-08-27T02:53:33.136Z,93203.99
2022-08-27T02:58:41.859Z,93197.48
2022-08-27T03:03:53.362Z,93195.45
2022-08-27T03:09:02.426Z,93199.75
2022-08-27T03:14:10.023Z,93204.45
2022-08-27T03:19:23.812Z,93203.70
2022-08-27T03:24:25.595Z,93203.11
2022-08-27T03:29:35.462Z,93195.89
2022-08-27T03:34:42.845Z,93193.11
2022-08-27T03:39:51.152Z,93178.78
2022-08-27T03:44:58.595Z,93177.55
2022-08-27T03:50:07.308Z,93175.44
2022-08-27T03:55:15.235Z,93176.66
2022-08-27T04:00:25.737Z,93184.81
2022-08-27T04:05:34.335Z,93189.42
2022-08-27T04:10:46.266Z,93180.23
2022-08-27T04:15:55.913Z,93181.23
2022-08-27T04:21:13.807Z,93190.77
2022-08-27T04:26:21.557Z,93191.55
2022-08-27T04:31:30.667Z,93189.20
2022-08-27T04:36:39.285Z,93186.84
2022-08-27T04:41:46.475Z,93187.74
2022-08-27T04:46:58.582Z,93186.95
2022-08-27T04:52:07.436Z,93192.78
2022-08-27T04:57:14.987Z,93188.95
2022-08-27T05:02:22.537Z,93188.88
2022-08-27T05:07:29.725Z,93192.33
2022-08-27T05:12:36.877Z,93196.15
2022-08-27T05:17:44.555Z,93196.83
2022-08-27T05:22:51.966Z,93195.50
2022-08-27T05:27:59.282Z,93201.21
2022-08-27T05:33:08.124Z,93198.62
2022-08-27T05:38:16.346Z,93196.63
2022-08-27T05:43:24.213Z,93198.52
2022-08-27T05:48:33.097Z,93194.58
2022-08-27T05:53:40.796Z,93204.30
2022-08-27T05:59:06.461Z,93203.62
2022-08-27T06:04:18.110Z,93197.89
2022-08-27T06:09:32.371Z,93199.42
2022-08-27T06:14:41.495Z,93200.98
2022-08-27T06:19:49.441Z,93200.34
2022-08-27T06:24:58.593Z,93201.09
2022-08-27T06:30:06.566Z,93206.25
2022-08-27T06:35:13.614Z,93207.56
2022-08-27T06:40:20.673Z,93200.89
2022-08-27T06:45:31.053Z,93199.58
2022-08-27T06:50:45.445Z,93206.22
2022-08-27T06:55:53.775Z,93211.55
2022-08-27T07:01:02.880Z,93219.70
2022-08-27T07:06:10.065Z,93212.08
2022-08-27T07:11:17.768Z,93215.02
2022-08-27T07:16:27.208Z,93224.12
2022-08-27T07:21:36.084Z,93220.73
2022-08-27T07:26:46.205Z,93225.63
2022-08-27T07:31:54.986Z,93229.52
2022-08-27T07:37:02.047Z,93227.25
2022-08-27T07:42:27.066Z,93226.65
2022-08-27T07:47:36.036Z,93226.56
2022-08-27T07:52:44.496Z,93236.30
2022-08-27T07:57:51.665Z,93229.84
2022-08-27T08:02:58.743Z,93225.56
2022-08-27T08:08:06.055Z,93234.98
2022-08-27T08:13:13.131Z,93255.34
2022-08-27T08:18:21.196Z,93263.09
2022-08-27T08:23:28.885Z,93263.84
2022-08-27T08:28:36.104Z,93261.20
2022-08-27T08:33:43.705Z,93270.09
2022-08-27T08:38:53.196Z,93283.28
2022-08-27T08:44:05.497Z,93277.58
2022-08-27T08:49:38.408Z,93276.87
2022-08-27T08:54:46.015Z,93286.43
2022-08-27T09:00:00.526Z,93289.78
2022-08-27T09:05:10.415Z,93286.93
2022-08-27T09:10:45.664Z,93292.74
2022-08-27T09:15:58.185Z,93298.05
2022-08-27T09:21:43.926Z,93299.16
2022-08-27T09:26:50.978Z,93284.81
2022-08-27T09:32:02.580Z,93278.94
2022-08-27T09:37:16.316Z,93280.91
2022-08-27T09:42:39.616Z,93307.46
2022-08-27T09:48:09.047Z,93308.55
2022-08-27T09:53:32.535Z,93305.48
2022-08-27T09:58:52.865Z,93308.18
2022-08-27T10:04:12.725Z,93295.02
2022-08-27T10:09:37.615Z,93291.24
2022-08-27T10:14:51.724Z,93294.43
2022-08-27T10:20:08.872Z,93287.21
2022-08-27T10:25:29.256Z,93276.80
2022-08-27T10:30:52.217Z,93269.63
2022-08-27T10:36:10.745Z,93251.84
2022-08-27T10:41:34.064Z,93252.40
2022-08-27T10:47:18.211Z,93234.64
2022-08-27T10:52:33.825Z,93235.38
2022-08-27T10:58:06.545Z,93241.44
2022-08-27T11:03:17.793Z,93241.84
2022-08-27T11:08:44.974Z,93237.09
2022-08-27T11:14:00.957Z,93225.25
2022-08-27T11:19:24.824Z,93220.06
2022-08-27T11:24:43.159Z,93217.50
2022-08-27T11:30:09.784Z,93211.85
2022-08-27T11:35:46.265Z,93215.92
2022-08-27T11:41:23.824Z,93223.02
2022-08-27T11:46:35.185Z,93219.39
2022-08-27T11:51:43.615Z,93212.98
2022-08-27T11:56:52.565Z,93209.38
2022-08-27T12:02:15.355Z,93198.95
2022-08-27T12:07:27.893Z,93198.97
2022-08-27T12:13:13.395Z,93198.44
2022-08-27T12:18:39.404Z,93192.14
2022-08-27T12:24:21.613Z,93178.53
2022-08-27T12:29:45.245Z,93165.19
2022-08-27T12:35:13.175Z,93153.97
2022-08-27T12:40:41.039Z,93146.48
2022-08-27T12:45:55.833Z,93151.07
2022-08-27T12:51:09.917Z,93146.75
2022-08-27T12:56:35.785Z,93146.33
2022-08-27T13:02:01.884Z,93137.47
2022-08-27T13:07:09.084Z,93142.25
2022-08-27T13:12:20.579Z,93135.85
2022-08-27T13:17:28.558Z,93137.92
2022-08-27T13:22:41.345Z,93130.33
2022-08-27T13:27:55.105Z,93131.81
2022-08-27T13:33:03.660Z,93131.11
2022-08-27T13:38:17.455Z,93127.61
2022-08-27T13:43:30.618Z,93121.16
2022-08-27T13:48:43.118Z,93121.44
2022-08-27T13:54:11.105Z,93113.47
2022-08-27T13:59:30.344Z,93133.78
2022-08-27T14:04:47.696Z,93169.55
2022-08-27T14:10:18.235Z,93190.88
2022-08-27T14:15:47.588Z,93188.05
2022-08-27T14:20:56.195Z,93179.86
2022-08-27T14:26:04.065Z,93185.23
2022-08-27T14:31:13.790Z,93210.86
2022-08-27T14:36:24.386Z,93236.34
2022-08-27T14:41:33.898Z,93234.33
2022-08-27T14:46:43.154Z,93248.34
2022-08-27T14:51:51.725Z,93254.19
2022-08-27T14:56:59.504Z,93260.25
2022-08-27T15:02:14.395Z,93251.87
2022-08-27T15:07:22.812Z,93251.39
2022-08-27T15:12:29.997Z,93287.20
2022-08-27T15:17:37.056Z,93278.99
2022-08-27T15:22:47.397Z,93288.58
2022-08-27T15:27:55.076Z,93279.88
2022-08-27T15:33:05.965Z,93275.62
2022-08-27T15:38:13.764Z,93273.81
2022-08-27T15:43:21.165Z,93278.87
2022-08-27T15:48:28.291Z,93293.14
2022-08-27T15:53:35.805Z,93304.54
2022-08-27T15:58:42.806Z,93309.39
2022-08-27T16:03:51.566Z,93315.22
2022-08-27T16:08:59.613Z,93315.55
2022-08-27T16:14:08.452Z,93316.52
2022-08-27T16:19:16.853Z,93335.35
2022-08-27T16:24:24.997Z,93369.91
2022-08-27T16:29:32.445Z,93371.21
2022-08-27T16:34:39.338Z,93361.87
2022-08-27T16:39:46.655Z,93367.34
2022-08-27T16:44:54.668Z,93359.63
2022-08-27T16:50:24.355Z,93352.23
2022-08-27T16:55:27.627Z,93341.83
2022-08-27T17:00:36.726Z,93343.56
2022-08-27T17:05:43.979Z,93325.59
2022-08-27T17:10:54.719Z,93344.08
2022-08-27T17:16:10.604Z,93351.80
2022-08-27T17:21:20.747Z,93353.03
2022-08-27T17:26:28.626Z,93356.37
2022-08-27T17:31:41.567Z,93345.92
2022-08-27T17:36:48.554Z,93353.78
2022-08-27T17:41:56.526Z,93349.07
2022-08-27T17:47:07.471Z,93350.19
2022-08-27T17:52:17.218Z,93356.73
2022-08-27T17:57:28.536Z,93361.94
2022-08-27T18:02:48.786Z,93364.00
2022-08-27T18:07:58.117Z,93365.73
2022-08-27T18:13:07.229Z,93362.20
2022-08-27T18:18:16.766Z,93368.36
2022-08-27T18:23:23.984Z,93372.48
2022-08-27T18:28:32.861Z,93383.20
2022-08-27T18:33:40.386Z,93382.73
2022-08-27T18:38:47.625Z,93385.78
2022-08-27T18:43:55.075Z,93402.13
2022-08-27T18:49:02.785Z,93405.23
2022-08-27T18:54:10.490Z,93407.13
2022-08-27T18:59:20.636Z,93393.52
2022-08-27T19:04:31.336Z,93392.63
2022-08-27T19:09:40.549Z,93399.13
2022-08-27T19:14:49.094Z,93406.98
2022-08-27T19:20:00.530Z,93413.52
2022-08-27T19:25:09.005Z,93410.31
2022-08-27T19:30:17.965Z,93418.54
2022-08-27T19:35:25.223Z,93420.63
2022-08-27T19:40:32.274Z,93433.53
2022-08-27T19:45:40.709Z,93445.20
2022-08-27T19:50:47.835Z,93449.42
2022-08-27T19:55:56.805Z,93469.72
2022-08-27T20:01:07.061Z,93481.58
2022-08-27T20:06:14.494Z,93490.34
2022-08-27T20:11:22.163Z,93493.02
2022-08-27T20:16:32.872Z,93496.30
2022-08-27T20:21:41.645Z,93493.25
2022-08-27T20:26:49.057Z,93500.20
2022-08-27T20:32:01.791Z,93493.97
2022-08-27T20:37:08.893Z,93495.88
2022-08-27T20:42:16.316Z,93506.98
2022-08-27T20:47:26.434Z,93514.14
2022-08-27T20:52:33.538Z,93511.17
2022-08-27T20:57:42.735Z,93502.19
2022-08-27T21:02:50.027Z,93506.64
2022-08-27T21:07:57.154Z,93488.03
2022-08-27T21:13:06.137Z,93473.75
2022-08-27T21:18:13.991Z,93468.79
2022-08-27T21:23:21.266Z,93470.46
2022-08-27T21:28:28.504Z,93467.34
2022-08-27T21:33:36.210Z,93465.50
2022-08-27T21:38:44.819Z,93460.98
2022-08-27T21:43:52.564Z,93448.41
2022-08-27T21:48:59.685Z,93436.69
2022-08-27T21:54:06.855Z,93436.03
2022-08-27T21:59:14.874Z,93432.10
2022-08-27T22:04:21.866Z,93424.38
2022-08-27T22:09:30.654Z,93421.09
2022-08-27T22:14:38.243Z,93416.14
2022-08-27T22:19:45.703Z,93408.82
2022-08-27T22:24:53.495Z,93402.38
2022-08-27T22:30:00.923Z,93394.07
2022-08-27T22:35:09.859Z,93380.84
2022-08-27T22:40:21.019Z,93365.17
2022-08-27T22:45:30.338Z,93350.52
2022-08-27T22:50:37.936Z,93352.31
2022-08-27T22:55:49.896Z,93339.45
2022-08-27T23:00:55.304Z,93329.43
2022-08-27T23:06:02.607Z,93312.02
2022-08-27T23:11:09.614Z,93307.15
2022-08-27T23:16:17.494Z,93300.20
2022-08-27T23:21:24.606Z,93304.65
2022-08-27T23:26:48.805Z,93310.02
2022-08-27T23:31:56.784Z,93309.61
2022-08-27T23:37:05.140Z,93306.70
2022-08-27T23:42:14.877Z,93292.59
2022-08-27T23:47:22.135Z,93294.72
2022-08-27T23:52:29.261Z,93302.76
2022-08-27T23:57:36.356Z,93302.36
